createdAt,value
2022-08-26T00:02:39.435Z,2.70
2022-08-26T00:07:43.378Z,3.22
2022-08-26T00:12:49.278Z,2.72
2022-08-26T00:17:53.979Z,3.33
2022-08-26T00:22:57.583Z,2.28
2022-08-26T00:28:01.938Z,2.30
2022-08-26T00:33:05.727Z,2.40
2022-08-26T00:38:09.250Z,2.28
2022-08-26T00:43:13.123Z,2.72
2022-08-26T00:48:21.513Z,3.95
2022-08-26T00:53:30.441Z,3.10
2022-08-26T00:58:38.759Z,2.70
2022-08-26T01:03:45.383Z,2.72
2022-08-26T01:08:51.015Z,2.60
2022-08-26T01:13:59.166Z,2.63
2022-08-26T01:19:14.579Z,2.80
2022-08-26T01:24:19.321Z,2.72
2022-08-26T01:29:23.117Z,2.65
2022-08-26T01:34:32.744Z,2.15
2022-08-26T01:39:37.894Z,2.38
2022-08-26T01:44:46.440Z,2.53
2022-08-26T01:49:54.685Z,2.50
2022-08-26T01:55:00.148Z,2.38
2022-08-26T02:00:08.895Z,2.70
2022-08-26T02:05:20.687Z,2.63
2022-08-26T02:10:24.413Z,2.70
2022-08-26T02:15:29.739Z,2.28
2022-08-26T02:20:34.896Z,2.20
2022-08-26T02:25:58.532Z,2.75
2022-08-26T02:31:02.696Z,1.98
2022-08-26T02:36:06.905Z,2.25
2022-08-26T02:41:11.150Z,2.70
2022-08-26T02:46:21.430Z,2.42
2022-08-26T02:51:33.146Z,3.28
2022-08-26T02:56:36.556Z,2.45
2022-08-26T03:01:40.419Z,2.58
2022-08-26T03:06:44.307Z,2.38
2022-08-26T03:16:59.103Z,2.72
2022-08-26T03:22:02.568Z,2.80
2022-08-26T03:27:07.334Z,2.42
2022-08-26T03:32:11.127Z,2.70
2022-08-26T03:37:14.440Z,2.30
2022-08-26T03:42:17.941Z,1.90
2022-08-26T03:47:24.990Z,2.30
2022-08-26T03:52:31.062Z,2.67
2022-08-26T03:57:34.978Z,2.10
2022-08-26T04:02:38.520Z,2.40
2022-08-26T04:07:44.744Z,1.90
2022-08-26T04:12:48.399Z,2.25
2022-08-26T04:17:51.941Z,2.00
2022-08-26T04:22:55.367Z,2.30
2022-08-26T04:27:59.342Z,1.98
2022-08-26T04:33:02.655Z,1.85
2022-08-26T04:38:09.031Z,2.30
2022-08-26T04:43:12.757Z,2.60
2022-08-26T04:48:16.896Z,2.03
2022-08-26T04:53:20.524Z,2.50
2022-08-26T04:58:25.661Z,2.00
2022-08-26T05:03:30.537Z,2.25
2022-08-26T05:08:34.535Z,1.60
2022-08-26T05:13:38.201Z,2.15
2022-08-26T05:18:43.737Z,1.85
2022-08-26T05:23:49.513Z,1.80
2022-08-26T05:28:54.941Z,2.10
2022-08-26T05:34:00.398Z,1.83
2022-08-26T05:39:07.988Z,1.88
2022-08-26T05:44:15.590Z,1.35
2022-08-26T05:49:19.827Z,2.22
2022-08-26T05:54:23.359Z,1.85
2022-08-26T05:59:27.314Z,2.00
2022-08-26T06:04:30.785Z,2.05
2022-08-26T06:09:37.520Z,1.83
2022-08-26T06:14:42.908Z,1.85
2022-08-26T06:19:46.475Z,1.63
2022-08-26T06:24:50.087Z,1.80
2022-08-26T06:29:54.666Z,1.65
2022-08-26T06:34:58.342Z,1.50
2022-08-26T06:40:02.615Z,1.92
2022-08-26T06:45:08.422Z,2.83
2022-08-26T06:50:11.959Z,1.48
2022-08-26T07:00:39.515Z,2.08
2022-08-26T07:05:45.552Z,1.58
2022-08-26T07:10:48.788Z,2.30
2022-08-26T07:15:57.309Z,2.03
2022-08-26T07:21:07.182Z,1.55
2022-08-26T07:26:14.988Z,3.08
2022-08-26T07:31:20.582Z,1.63
2022-08-26T07:36:30.321Z,1.92
2022-08-26T07:41:43.859Z,1.77
2022-08-26T07:46:53.307Z,1.50
2022-08-26T07:51:56.995Z,1.80
2022-08-26T07:57:00.919Z,1.40
2022-08-26T08:02:08.998Z,1.83
2022-08-26T08:07:17.789Z,1.65
2022-08-26T08:12:21.582Z,2.53
2022-08-26T08:17:25.026Z,1.50
2022-08-26T08:22:28.942Z,1.92
2022-08-26T08:27:35.092Z,1.50
2022-08-26T08:32:38.907Z,1.30
2022-08-26T08:37:46.231Z,1.27
2022-08-26T08:43:10.604Z,1.70
2022-08-26T08:48:28.009Z,1.50
2022-08-26T08:53:38.128Z,1.40
2022-08-26T08:59:01.160Z,1.65
2022-08-26T09:04:19.837Z,1.70
2022-08-26T09:09:47.488Z,1.77
2022-08-26T09:14:53.244Z,1.67
2022-08-26T09:20:39.526Z,1.70
2022-08-26T09:31:27.827Z,2.03
2022-08-26T09:36:41.689Z,1.65
2022-08-26T09:41:45.349Z,1.50
2022-08-26T09:46:57.494Z,1.75
2022-08-26T09:52:07.003Z,2.25
2022-08-26T09:57:32.279Z,1.58
2022-08-26T10:02:39.207Z,1.40
2022-08-26T10:07:51.370Z,1.30
2022-08-26T10:13:25.034Z,1.50
2022-08-26T10:18:56.850Z,1.83
2022-08-26T10:24:05.122Z,1.92
2022-08-26T10:29:23.296Z,1.42
2022-08-26T10:34:27.091Z,1.35
2022-08-26T10:39:58.990Z,1.63
2022-08-26T10:45:16.041Z,1.48
2022-08-26T10:50:31.785Z,1.40
2022-08-26T10:56:18.970Z,1.50
2022-08-26T11:01:41.436Z,1.33
2022-08-26T11:11:53.708Z,1.58
2022-08-26T11:16:58.739Z,2.55
2022-08-26T11:22:06.481Z,1.45
2022-08-26T11:27:33.843Z,1.30
2022-08-26T11:32:40.111Z,1.77
2022-08-26T11:37:48.493Z,1.52
2022-08-26T11:42:57.329Z,1.33
2022-08-26T11:48:34.099Z,1.40
2022-08-26T11:53:40.850Z,2.60
2022-08-26T11:58:46.220Z,1.58
2022-08-26T12:03:51.442Z,1.58
2022-08-26T12:08:59.330Z,1.40
2022-08-26T12:14:20.333Z,1.33
2022-08-26T12:19:32.858Z,1.40
2022-08-26T12:24:42.618Z,1.30
2022-08-26T12:30:00.033Z,1.55
2022-08-26T12:35:12.274Z,1.52
2022-08-26T12:40:48.341Z,1.50
2022-08-26T12:45:59.600Z,1.33
2022-08-26T12:51:03.898Z,1.77
2022-08-26T12:56:22.859Z,1.90
2022-08-26T13:01:26.716Z,1.25
2022-08-26T13:06:30.347Z,1.20
2022-08-26T13:11:39.702Z,1.35
2022-08-26T13:16:44.684Z,1.33
2022-08-26T13:21:55.251Z,1.48
2022-08-26T13:27:01.989Z,1.20
2022-08-26T13:32:06.794Z,1.40
2022-08-26T13:37:10.318Z,1.25
2022-08-26T13:42:13.765Z,1.67
2022-08-26T13:47:18.102Z,2.08
2022-08-26T13:52:30.209Z,1.27
2022-08-26T13:57:34.526Z,1.25
2022-08-26T14:02:38.074Z,1.40
2022-08-26T14:07:41.780Z,1.40
2022-08-26T14:12:45.779Z,1.60
2022-08-26T14:17:50.367Z,1.42
2022-08-26T14:28:18.079Z,1.55
2022-08-26T14:33:25.741Z,2.17
2022-08-26T14:38:29.865Z,1.48
2022-08-26T14:43:33.310Z,1.40
2022-08-26T14:48:36.877Z,1.67
2022-08-26T14:53:40.345Z,1.52
2022-08-26T14:58:43.895Z,1.80
2022-08-26T15:03:47.335Z,1.70
2022-08-26T15:08:51.006Z,1.27
2022-08-26T15:13:54.550Z,1.30
2022-08-26T15:18:58.385Z,1.38
2022-08-26T15:24:04.500Z,1.95
2022-08-26T15:29:07.990Z,1.27
2022-08-26T15:34:16.343Z,2.38
2022-08-26T15:39:20.296Z,1.60
2022-08-26T15:44:25.480Z,1.67
2022-08-26T15:49:28.997Z,1.92
2022-08-26T15:54:32.574Z,1.52
2022-08-26T15:59:36.055Z,1.85
2022-08-26T16:04:40.054Z,2.05
2022-08-26T16:09:43.418Z,2.47
2022-08-26T16:14:47.085Z,1.45
2022-08-26T16:19:50.724Z,1.92
2022-08-26T16:24:58.321Z,2.30
2022-08-26T16:30:01.821Z,1.65
2022-08-26T16:35:07.103Z,2.03
2022-08-26T16:40:11.277Z,1.60
2022-08-26T16:45:14.697Z,2.13
2022-08-26T16:50:20.820Z,1.50
2022-08-26T16:55:24.380Z,2.17
2022-08-26T17:00:30.879Z,2.47
2022-08-26T17:05:34.472Z,2.03
2022-08-26T17:10:41.060Z,1.67
2022-08-26T17:15:49.014Z,1.90
2022-08-26T17:20:54.140Z,1.58
2022-08-26T17:25:57.660Z,1.85
2022-08-26T17:31:01.373Z,1.90
2022-08-26T17:36:09.754Z,1.92
2022-08-26T17:41:14.065Z,1.80
2022-08-26T17:46:17.451Z,2.10
2022-08-26T17:51:21.665Z,1.73
2022-08-26T17:56:27.438Z,1.80
2022-08-26T18:01:32.169Z,1.80
2022-08-26T18:06:35.644Z,1.90
2022-08-26T18:11:40.720Z,1.80
2022-08-26T18:16:44.431Z,1.60
2022-08-26T18:21:47.785Z,1.65
2022-08-26T18:26:54.518Z,1.70
2022-08-26T18:31:57.826Z,1.98
2022-08-26T18:37:01.247Z,1.98
2022-08-26T18:42:04.850Z,1.95
2022-08-26T18:47:07.978Z,1.92
2022-08-26T18:52:12.663Z,1.67
2022-08-26T18:57:16.582Z,1.63
2022-08-26T19:02:20.087Z,1.83
2022-08-26T19:07:24.570Z,1.70
2022-08-26T19:12:28.233Z,1.88
2022-08-26T19:17:32.143Z,1.73
2022-08-26T19:22:35.417Z,2.15
2022-08-26T19:27:38.826Z,2.80
2022-08-26T19:33:37.230Z,1.58
2022-08-26T19:38:40.854Z,1.50
2022-08-26T19:43:44.393Z,1.98
2022-08-26T19:48:54.058Z,2.03
2022-08-26T19:54:01.576Z,1.65
2022-08-26T19:59:05.331Z,1.60
2022-08-26T20:04:08.795Z,1.77
2022-08-26T20:09:12.183Z,1.63
2022-08-26T20:14:15.400Z,1.85
2022-08-26T20:19:18.781Z,1.70
2022-08-26T20:24:24.324Z,2.00
2022-08-26T20:29:27.860Z,1.92
2022-08-26T20:34:32.586Z,1.88
2022-08-26T20:39:36.820Z,2.00
2022-08-26T20:44:43.288Z,1.77
2022-08-26T20:49:59.360Z,1.70
2022-08-26T20:55:02.779Z,2.03
2022-08-26T21:00:06.859Z,2.03
2022-08-26T21:05:11.705Z,2.20
2022-08-26T21:10:15.492Z,2.72
2022-08-26T21:15:19.805Z,2.45
2022-08-26T21:20:23.628Z,2.53
2022-08-26T21:25:27.830Z,2.33
2022-08-26T21:30:31.777Z,2.47
2022-08-26T21:35:35.298Z,2.50
2022-08-26T21:40:39.341Z,2.65
2022-08-26T21:45:43.029Z,2.63
2022-08-26T21:50:46.598Z,2.80
2022-08-26T21:55:52.374Z,2.88
2022-08-26T22:00:55.770Z,3.00
2022-08-26T22:05:59.355Z,3.33
2022-08-26T22:11:04.153Z,3.38
2022-08-26T22:16:08.406Z,2.92
2022-08-26T22:21:20.962Z,3.05
2022-08-26T22:26:27.293Z,2.80
2022-08-26T22:31:37.294Z,3.38
2022-08-26T22:36:44.396Z,3.15
2022-08-26T22:41:49.027Z,3.53
2022-08-26T22:46:53.467Z,3.05
2022-08-26T22:51:57.379Z,2.70
2022-08-26T22:57:01.286Z,2.75
2022-08-26T23:02:05.077Z,2.65
2022-08-26T23:07:13.294Z,2.83
2022-08-26T23:12:17.305Z,3.67
2022-08-26T23:17:23.347Z,3.10
2022-08-26T23:22:29.126Z,2.35
2022-08-26T23:27:38.109Z,2.50
2022-08-26T23:32:42.369Z,2.63
2022-08-26T23:37:46.931Z,2.80
2022-08-26T23:42:57.645Z,2.58
2022-08-26T23:48:01.953Z,2.45
2022-08-26T23:53:05.280Z,2.55
2022-08-26T23:58:09.024Z,2.60
